sensor_id;sensor_type;location;lat;lon;timestamp;P1;durP1;ratioP1;P2;durP2;ratioP2
19830;SDS011;10076;52.008;4.708;2023-02-08T00:00:51;12.23;;;4.40;;
19830;SDS011;10076;52.008;4.708;2023-02-08T00:03:16;11.20;;;5.80;;
19830;SDS011;10076;52.008;4.708;2023-02-08T00:05:41;7.23;;;4.10;;
19830;SDS011;10076;52.008;4.708;2023-02-08T00:08:07;8.83;;;5.27;;
19830;SDS011;10076;52.008;4.708;2023-02-08T00:54:16;8.27;;;4.50;;
19830;SDS011;10076;52.008;4.708;2023-02-08T00:56:42;6.23;;;4.33;;
19830;SDS011;10076;52.008;4.708;2023-02-08T00:59:08;6.50;;;3.50;;
19830;SDS011;10076;52.008;4.708;2023-02-08T01:01:33;6.87;;;3.97;;
19830;SDS011;10076;52.008;4.708;2023-02-08T01:03:59;10.43;;;4.47;;
19830;SDS011;10076;52.008;4.708;2023-02-08T01:06:24;6.53;;;4.37;;
19830;SDS011;10076;52.008;4.708;2023-02-08T01:08:49;7.23;;;3.40;;
19830;SDS011;10076;52.008;4.708;2023-02-08T01:11:16;9.93;;;4.27;;
19830;SDS011;10076;52.008;4.708;2023-02-08T01:13:45;6.63;;;3.63;;
19830;SDS011;10076;52.008;4.708;2023-02-08T01:16:14;9.27;;;5.13;;
19830;SDS011;10076;52.008;4.708;2023-02-08T01:18:47;7.03;;;4.47;;
19830;SDS011;10076;52.008;4.708;2023-02-08T01:21:15;5.37;;;3.40;;
19830;SDS011;10076;52.008;4.708;2023-02-08T01:23:43;9.30;;;4.03;;
19830;SDS011;10076;52.008;4.708;2023-02-08T01:26:09;11.90;;;4.10;;
19830;SDS011;10076;52.008;4.708;2023-02-08T01:28:38;8.57;;;3.90;;
19830;SDS011;10076;52.008;4.708;2023-02-08T01:31:05;10.97;;;4.07;;
19830;SDS011;10076;52.008;4.708;2023-02-08T01:33:35;7.40;;;4.07;;
19830;SDS011;10076;52.008;4.708;2023-02-08T01:36:01;16.63;;;5.87;;
19830;SDS011;10076;52.008;4.708;2023-02-08T01:38:27;7.70;;;4.80;;
19830;SDS011;10076;52.008;4.708;2023-02-08T01:40:53;14.07;;;4.57;;
19830;SDS011;10076;52.008;4.708;2023-02-08T01:43:24;9.03;;;4.50;;
19830;SDS011;10076;52.008;4.708;2023-02-08T01:45:51;8.80;;;5.00;;
19830;SDS011;10076;52.008;4.708;2023-02-08T01:48:18;5.63;;;3.97;;
19830;SDS011;10076;52.008;4.708;2023-02-08T01:53:27;11.00;;;5.53;;
19830;SDS011;10076;52.008;4.708;2023-02-08T01:55:56;8.37;;;3.90;;
19830;SDS011;10076;52.008;4.708;2023-02-08T01:58:24;7.57;;;4.80;;
19830;SDS011;10076;52.008;4.708;2023-02-08T02:00:52;7.67;;;4.47;;
19830;SDS011;10076;52.008;4.708;2023-02-08T02:03:18;6.63;;;3.23;;
19830;SDS011;10076;52.008;4.708;2023-02-08T02:05:46;6.37;;;4.00;;
19830;SDS011;10076;52.008;4.708;2023-02-08T02:08:21;6.90;;;4.17;;
19830;SDS011;10076;52.008;4.708;2023-02-08T02:10:47;7.80;;;4.57;;
19830;SDS011;10076;52.008;4.708;2023-02-08T02:13:15;7.07;;;3.43;;
19830;SDS011;10076;52.008;4.708;2023-02-08T02:15:44;8.77;;;3.87;;
19830;SDS011;10076;52.008;4.708;2023-02-08T02:18:10;5.77;;;3.23;;
19830;SDS011;10076;52.008;4.708;2023-02-08T02:20:48;5.30;;;3.67;;
19830;SDS011;10076;52.008;4.708;2023-02-08T02:23:34;4.60;;;3.70;;
19830;SDS011;10076;52.008;4.708;2023-02-08T02:31:58;3.67;;;2.80;;
19830;SDS011;10076;52.008;4.708;2023-02-08T02:34:33;8.87;;;4.80;;
19830;SDS011;10076;52.008;4.708;2023-02-08T02:40:02;5.30;;;4.03;;
19830;SDS011;10076;52.008;4.708;2023-02-08T02:43:31;6.53;;;4.27;;
19830;SDS011;10076;52.008;4.708;2023-02-08T02:48:41;6.90;;;3.77;;
19830;SDS011;10076;52.008;4.708;2023-02-08T02:53:51;6.27;;;3.80;;
19830;SDS011;10076;52.008;4.708;2023-02-08T02:56:39;11.33;;;4.90;;
19830;SDS011;10076;52.008;4.708;2023-02-08T02:59:08;6.53;;;3.87;;
19830;SDS011;10076;52.008;4.708;2023-02-08T03:01:35;10.73;;;3.97;;
19830;SDS011;10076;52.008;4.708;2023-02-08T03:04:11;8.07;;;4.03;;
19830;SDS011;10076;52.008;4.708;2023-02-08T03:17:33;7.40;;;3.63;;
19830;SDS011;10076;52.008;4.708;2023-02-08T03:20:21;5.83;;;3.37;;
19830;SDS011;10076;52.008;4.708;2023-02-08T03:25:23;9.43;;;4.43;;
19830;SDS011;10076;52.008;4.708;2023-02-08T03:33:30;7.67;;;3.37;;
19830;SDS011;10076;52.008;4.708;2023-02-08T03:38:35;3.97;;;3.07;;
19830;SDS011;10076;52.008;4.708;2023-02-08T03:41:05;5.73;;;3.30;;
19830;SDS011;10076;52.008;4.708;2023-02-08T03:46:08;6.47;;;3.37;;
19830;SDS011;10076;52.008;4.708;2023-02-08T03:48:39;6.73;;;3.97;;
19830;SDS011;10076;52.008;4.708;2023-02-08T03:51:09;9.63;;;4.30;;
19830;SDS011;10076;52.008;4.708;2023-02-08T03:53:35;10.97;;;3.73;;
19830;SDS011;10076;52.008;4.708;2023-02-08T03:56:06;3.80;;;3.30;;
19830;SDS011;10076;52.008;4.708;2023-02-08T03:58:40;6.30;;;3.20;;
19830;SDS011;10076;52.008;4.708;2023-02-08T04:01:12;11.07;;;4.90;;
19830;SDS011;10076;52.008;4.708;2023-02-08T04:03:43;6.00;;;3.40;;
19830;SDS011;10076;52.008;4.708;2023-02-08T04:06:10;6.10;;;4.50;;
19830;SDS011;10076;52.008;4.708;2023-02-08T04:08:36;6.00;;;3.47;;
19830;SDS011;10076;52.008;4.708;2023-02-08T04:11:01;7.17;;;3.90;;
19830;SDS011;10076;52.008;4.708;2023-02-08T04:13:26;8.23;;;3.57;;
19830;SDS011;10076;52.008;4.708;2023-02-08T04:15:52;3.93;;;3.40;;
19830;SDS011;10076;52.008;4.708;2023-02-08T04:18:17;9.33;;;3.70;;
19830;SDS011;10076;52.008;4.708;2023-02-08T04:20:42;4.63;;;3.30;;
19830;SDS011;10076;52.008;4.708;2023-02-08T04:23:08;4.90;;;3.10;;
19830;SDS011;10076;52.008;4.708;2023-02-08T04:25:33;7.33;;;3.50;;
19830;SDS011;10076;52.008;4.708;2023-02-08T04:27:58;7.27;;;3.17;;
19830;SDS011;10076;52.008;4.708;2023-02-08T04:30:24;10.93;;;3.50;;
19830;SDS011;10076;52.008;4.708;2023-02-08T04:32:55;4.30;;;3.73;;
19830;SDS011;10076;52.008;4.708;2023-02-08T04:35:20;9.70;;;3.33;;
19830;SDS011;10076;52.008;4.708;2023-02-08T04:37:46;6.33;;;4.27;;
19830;SDS011;10076;52.008;4.708;2023-02-08T04:40:11;8.10;;;3.97;;
19830;SDS011;10076;52.008;4.708;2023-02-08T04:42:36;6.87;;;3.90;;
19830;SDS011;10076;52.008;4.708;2023-02-08T04:45:02;4.83;;;2.87;;
19830;SDS011;10076;52.008;4.708;2023-02-08T04:47:27;5.80;;;3.33;;
19830;SDS011;10076;52.008;4.708;2023-02-08T04:49:53;5.63;;;3.27;;
19830;SDS011;10076;52.008;4.708;2023-02-08T04:52:18;7.10;;;3.90;;
19830;SDS011;10076;52.008;4.708;2023-02-08T04:54:43;8.47;;;3.90;;
19830;SDS011;10076;52.008;4.708;2023-02-08T04:57:11;8.70;;;4.00;;
19830;SDS011;10076;52.008;4.708;2023-02-08T04:59:37;4.17;;;3.13;;
19830;SDS011;10076;52.008;4.708;2023-02-08T05:02:03;5.33;;;3.30;;
19830;SDS011;10076;52.008;4.708;2023-02-08T05:04:28;6.07;;;3.53;;
19830;SDS011;10076;52.008;4.708;2023-02-08T05:06:54;4.53;;;2.90;;
19830;SDS011;10076;52.008;4.708;2023-02-08T05:09:20;3.37;;;2.83;;
19830;SDS011;10076;52.008;4.708;2023-02-08T05:11:45;4.87;;;2.77;;
19830;SDS011;10076;52.008;4.708;2023-02-08T05:14:10;5.63;;;3.67;;
19830;SDS011;10076;52.008;4.708;2023-02-08T05:16:35;7.07;;;3.83;;
19830;SDS011;10076;52.008;4.708;2023-02-08T05:19:01;7.10;;;3.67;;
19830;SDS011;10076;52.008;4.708;2023-02-08T05:21:26;5.13;;;2.80;;
19830;SDS011;10076;52.008;4.708;2023-02-08T05:23:51;5.03;;;4.10;;
19830;SDS011;10076;52.008;4.708;2023-02-08T05:26:17;4.87;;;3.37;;
19830;SDS011;10076;52.008;4.708;2023-02-08T05:28:43;5.47;;;4.13;;
19830;SDS011;10076;52.008;4.708;2023-02-08T05:31:09;4.90;;;3.30;;
19830;SDS011;10076;52.008;4.708;2023-02-08T05:33:36;7.97;;;3.70;;
19830;SDS011;10076;52.008;4.708;2023-02-08T05:36:01;10.07;;;3.27;;
19830;SDS011;10076;52.008;4.708;2023-02-08T05:38:26;5.47;;;3.30;;
19830;SDS011;10076;52.008;4.708;2023-02-08T05:40:52;4.80;;;4.07;;
19830;SDS011;10076;52.008;4.708;2023-02-08T05:43:17;5.87;;;3.47;;
19830;SDS011;10076;52.008;4.708;2023-02-08T05:45:42;4.67;;;3.13;;
19830;SDS011;10076;52.008;4.708;2023-02-08T05:48:07;4.30;;;3.80;;
19830;SDS011;10076;52.008;4.708;2023-02-08T05:50:33;4.97;;;3.37;;
19830;SDS011;10076;52.008;4.708;2023-02-08T05:52:58;5.47;;;3.63;;
19830;SDS011;10076;52.008;4.708;2023-02-08T05:55:23;4.57;;;2.97;;
19830;SDS011;10076;52.008;4.708;2023-02-08T05:57:51;5.33;;;3.40;;
19830;SDS011;10076;52.008;4.708;2023-02-08T06:00:16;4.90;;;3.03;;
19830;SDS011;10076;52.008;4.708;2023-02-08T06:02:41;8.30;;;2.73;;
19830;SDS011;10076;52.008;4.708;2023-02-08T06:05:07;8.07;;;4.00;;
19830;SDS011;10076;52.008;4.708;2023-02-08T06:07:32;6.40;;;4.27;;
19830;SDS011;10076;52.008;4.708;2023-02-08T06:09:57;6.43;;;3.63;;
19830;SDS011;10076;52.008;4.708;2023-02-08T06:12:23;4.80;;;2.87;;
19830;SDS011;10076;52.008;4.708;2023-02-08T06:14:48;7.83;;;4.00;;
19830;SDS011;10076;52.008;4.708;2023-02-08T06:17:14;5.33;;;2.80;;
19830;SDS011;10076;52.008;4.708;2023-02-08T06:19:39;6.37;;;3.17;;
19830;SDS011;10076;52.008;4.708;2023-02-08T06:22:04;5.83;;;3.50;;
19830;SDS011;10076;52.008;4.708;2023-02-08T06:24:29;4.07;;;3.67;;
19830;SDS011;10076;52.008;4.708;2023-02-08T06:26:55;6.43;;;3.43;;
19830;SDS011;10076;52.008;4.708;2023-02-08T06:29:21;4.67;;;3.30;;
19830;SDS011;10076;52.008;4.708;2023-02-08T06:31:46;5.33;;;3.63;;
19830;SDS011;10076;52.008;4.708;2023-02-08T06:34:11;7.63;;;3.33;;
19830;SDS011;10076;52.008;4.708;2023-02-08T06:36:36;2.43;;;2.23;;
19830;SDS011;10076;52.008;4.708;2023-02-08T06:39:02;7.83;;;4.53;;
19830;SDS011;10076;52.008;4.708;2023-02-08T06:41:27;5.07;;;3.40;;
19830;SDS011;10076;52.008;4.708;2023-02-08T06:43:52;10.73;;;3.83;;
19830;SDS011;10076;52.008;4.708;2023-02-08T06:46:18;11.37;;;3.03;;
19830;SDS011;10076;52.008;4.708;2023-02-08T06:48:43;10.30;;;4.17;;
19830;SDS011;10076;52.008;4.708;2023-02-08T06:51:08;4.30;;;2.37;;
19830;SDS011;10076;52.008;4.708;2023-02-08T06:53:34;4.00;;;2.87;;
19830;SDS011;10076;52.008;4.708;2023-02-08T06:55:59;7.93;;;3.03;;
19830;SDS011;10076;52.008;4.708;2023-02-08T06:58:24;3.57;;;2.90;;
19830;SDS011;10076;52.008;4.708;2023-02-08T07:00:49;5.37;;;3.20;;
19830;SDS011;10076;52.008;4.708;2023-02-08T07:03:15;5.70;;;3.53;;
19830;SDS011;10076;52.008;4.708;2023-02-08T07:05:41;5.37;;;3.77;;
19830;SDS011;10076;52.008;4.708;2023-02-08T07:08:07;4.50;;;2.80;;
19830;SDS011;10076;52.008;4.708;2023-02-08T07:10:33;5.87;;;3.27;;
19830;SDS011;10076;52.008;4.708;2023-02-08T07:13:00;10.57;;;3.47;;
19830;SDS011;10076;52.008;4.708;2023-02-08T07:15:26;9.93;;;3.33;;
19830;SDS011;10076;52.008;4.708;2023-02-08T07:17:54;3.03;;;2.70;;
19830;SDS011;10076;52.008;4.708;2023-02-08T07:20:19;3.63;;;2.67;;
19830;SDS011;10076;52.008;4.708;2023-02-08T07:22:44;8.23;;;4.07;;
19830;SDS011;10076;52.008;4.708;2023-02-08T07:25:10;6.77;;;4.30;;
19830;SDS011;10076;52.008;4.708;2023-02-08T07:27:35;5.37;;;3.60;;
19830;SDS011;10076;52.008;4.708;2023-02-08T07:30:00;10.47;;;3.50;;
19830;SDS011;10076;52.008;4.708;2023-02-08T07:32:26;4.70;;;4.10;;
19830;SDS011;10076;52.008;4.708;2023-02-08T07:34:51;12.83;;;3.53;;
19830;SDS011;10076;52.008;4.708;2023-02-08T07:37:18;6.17;;;3.80;;
19830;SDS011;10076;52.008;4.708;2023-02-08T07:39:43;13.20;;;3.87;;
19830;SDS011;10076;52.008;4.708;2023-02-08T07:42:08;4.93;;;3.17;;
19830;SDS011;10076;52.008;4.708;2023-02-08T07:44:35;5.10;;;3.67;;
19830;SDS011;10076;52.008;4.708;2023-02-08T07:47:02;4.57;;;3.40;;
19830;SDS011;10076;52.008;4.708;2023-02-08T07:49:28;5.43;;;3.13;;
19830;SDS011;10076;52.008;4.708;2023-02-08T07:51:53;4.53;;;3.57;;
19830;SDS011;10076;52.008;4.708;2023-02-08T07:54:19;4.90;;;3.93;;
19830;SDS011;10076;52.008;4.708;2023-02-08T07:56:44;8.13;;;4.13;;
19830;SDS011;10076;52.008;4.708;2023-02-08T07:59:09;8.67;;;3.57;;
19830;SDS011;10076;52.008;4.708;2023-02-08T08:01:35;4.33;;;3.90;;
19830;SDS011;10076;52.008;4.708;2023-02-08T08:04:00;5.50;;;3.27;;
19830;SDS011;10076;52.008;4.708;2023-02-08T08:06:26;6.30;;;3.83;;
19830;SDS011;10076;52.008;4.708;2023-02-08T08:08:51;6.67;;;3.37;;
19830;SDS011;10076;52.008;4.708;2023-02-08T08:11:18;10.93;;;5.03;;
19830;SDS011;10076;52.008;4.708;2023-02-08T08:13:44;4.77;;;3.87;;
19830;SDS011;10076;52.008;4.708;2023-02-08T08:16:10;7.33;;;3.93;;
19830;SDS011;10076;52.008;4.708;2023-02-08T08:18:35;5.17;;;3.13;;
19830;SDS011;10076;52.008;4.708;2023-02-08T08:21:01;4.77;;;3.00;;
19830;SDS011;10076;52.008;4.708;2023-02-08T08:23:27;7.87;;;3.63;;
19830;SDS011;10076;52.008;4.708;2023-02-08T08:25:53;5.13;;;3.10;;
19830;SDS011;10076;52.008;4.708;2023-02-08T08:28:18;6.43;;;3.30;;
19830;SDS011;10076;52.008;4.708;2023-02-08T08:30:44;5.97;;;4.40;;
19830;SDS011;10076;52.008;4.708;2023-02-08T08:33:10;4.27;;;3.50;;
19830;SDS011;10076;52.008;4.708;2023-02-08T08:35:36;9.47;;;4.70;;
19830;SDS011;10076;52.008;4.708;2023-02-08T08:38:01;9.20;;;3.33;;
19830;SDS011;10076;52.008;4.708;2023-02-08T08:40:27;5.13;;;4.33;;
19830;SDS011;10076;52.008;4.708;2023-02-08T08:42:52;6.33;;;3.33;;
19830;SDS011;10076;52.008;4.708;2023-02-08T08:45:17;7.57;;;4.00;;
19830;SDS011;10076;52.008;4.708;2023-02-08T08:47:43;7.30;;;4.00;;
19830;SDS011;10076;52.008;4.708;2023-02-08T08:50:08;7.80;;;3.83;;
19830;SDS011;10076;52.008;4.708;2023-02-08T08:52:34;7.17;;;3.97;;
19830;SDS011;10076;52.008;4.708;2023-02-08T08:54:59;7.37;;;4.93;;
19830;SDS011;10076;52.008;4.708;2023-02-08T08:57:24;5.23;;;3.97;;
19830;SDS011;10076;52.008;4.708;2023-02-08T08:59:49;6.40;;;4.10;;
19830;SDS011;10076;52.008;4.708;2023-02-08T09:02:15;11.00;;;5.00;;
19830;SDS011;10076;52.008;4.708;2023-02-08T09:04:40;7.57;;;4.20;;
19830;SDS011;10076;52.008;4.708;2023-02-08T09:07:06;7.70;;;4.77;;
19830;SDS011;10076;52.008;4.708;2023-02-08T09:09:32;6.20;;;4.40;;
19830;SDS011;10076;52.008;4.708;2023-02-08T09:11:57;7.33;;;4.10;;
19830;SDS011;10076;52.008;4.708;2023-02-08T09:14:23;11.70;;;5.50;;
19830;SDS011;10076;52.008;4.708;2023-02-08T09:16:48;10.20;;;4.90;;
19830;SDS011;10076;52.008;4.708;2023-02-08T09:19:14;8.10;;;4.73;;
19830;SDS011;10076;52.008;4.708;2023-02-08T09:21:40;8.90;;;5.03;;
19830;SDS011;10076;52.008;4.708;2023-02-08T09:24:05;8.07;;;4.73;;
19830;SDS011;10076;52.008;4.708;2023-02-08T09:26:31;13.47;;;5.43;;
19830;SDS011;10076;52.008;4.708;2023-02-08T09:28:56;11.33;;;5.83;;
19830;SDS011;10076;52.008;4.708;2023-02-08T09:31:26;12.50;;;5.10;;
19830;SDS011;10076;52.008;4.708;2023-02-08T09:33:55;8.37;;;4.70;;
19830;SDS011;10076;52.008;4.708;2023-02-08T09:36:23;8.33;;;4.67;;
19830;SDS011;10076;52.008;4.708;2023-02-08T09:38:52;9.53;;;4.97;;
19830;SDS011;10076;52.008;4.708;2023-02-08T09:41:37;8.50;;;4.70;;
19830;SDS011;10076;52.008;4.708;2023-02-08T09:44:14;9.57;;;5.03;;
19830;SDS011;10076;52.008;4.708;2023-02-08T09:46:45;8.80;;;5.30;;
19830;SDS011;10076;52.008;4.708;2023-02-08T09:49:22;8.20;;;5.07;;
19830;SDS011;10076;52.008;4.708;2023-02-08T09:52:10;10.00;;;5.03;;
19830;SDS011;10076;52.008;4.708;2023-02-08T09:54:41;9.67;;;5.13;;
19830;SDS011;10076;52.008;4.708;2023-02-08T09:57:12;9.37;;;5.10;;
19830;SDS011;10076;52.008;4.708;2023-02-08T09:59:45;11.57;;;5.80;;
19830;SDS011;10076;52.008;4.708;2023-02-08T10:05:07;7.67;;;5.03;;
19830;SDS011;10076;52.008;4.708;2023-02-08T10:07:35;12.10;;;5.23;;
19830;SDS011;10076;52.008;4.708;2023-02-08T10:10:02;12.10;;;5.23;;
19830;SDS011;10076;52.008;4.708;2023-02-08T10:26:23;8.87;;;4.93;;
19830;SDS011;10076;52.008;4.708;2023-02-08T10:34:42;11.60;;;5.13;;
19830;SDS011;10076;52.008;4.708;2023-02-08T10:37:19;9.80;;;5.57;;
19830;SDS011;10076;52.008;4.708;2023-02-08T10:39:49;10.90;;;5.60;;
19830;SDS011;10076;52.008;4.708;2023-02-08T10:42:19;13.67;;;5.80;;
19830;SDS011;10076;52.008;4.708;2023-02-08T10:45:01;12.80;;;6.17;;
19830;SDS011;10076;52.008;4.708;2023-02-08T10:47:43;10.50;;;5.03;;
19830;SDS011;10076;52.008;4.708;2023-02-08T10:50:20;10.67;;;6.43;;
19830;SDS011;10076;52.008;4.708;2023-02-08T10:52:55;10.23;;;6.13;;
19830;SDS011;10076;52.008;4.708;2023-02-08T10:55:21;14.10;;;6.27;;
19830;SDS011;10076;52.008;4.708;2023-02-08T10:57:47;11.20;;;6.40;;
19830;SDS011;10076;52.008;4.708;2023-02-08T11:02:43;15.90;;;7.17;;
19830;SDS011;10076;52.008;4.708;2023-02-08T11:05:12;16.85;;;8.27;;
19830;SDS011;10076;52.008;4.708;2023-02-08T11:07:39;11.48;;;6.43;;
19830;SDS011;10076;52.008;4.708;2023-02-08T11:12:52;12.77;;;6.10;;
19830;SDS011;10076;52.008;4.708;2023-02-08T11:15:26;9.48;;;6.03;;
19830;SDS011;10076;52.008;4.708;2023-02-08T11:17:57;10.68;;;5.80;;
19830;SDS011;10076;52.008;4.708;2023-02-08T11:20:28;12.00;;;6.78;;
19830;SDS011;10076;52.008;4.708;2023-02-08T11:22:57;9.75;;;5.82;;
19830;SDS011;10076;52.008;4.708;2023-02-08T11:25:31;13.00;;;6.65;;
19830;SDS011;10076;52.008;4.708;2023-02-08T11:28:03;11.20;;;6.18;;
19830;SDS011;10076;52.008;4.708;2023-02-08T11:30:29;9.13;;;5.28;;
19830;SDS011;10076;52.008;4.708;2023-02-08T11:33:14;10.15;;;6.03;;
19830;SDS011;10076;52.008;4.708;2023-02-08T11:35:42;11.48;;;5.88;;
19830;SDS011;10076;52.008;4.708;2023-02-08T11:38:17;11.43;;;6.72;;
19830;SDS011;10076;52.008;4.708;2023-02-08T11:40:44;12.40;;;6.97;;
19830;SDS011;10076;52.008;4.708;2023-02-08T11:43:20;10.32;;;6.30;;
19830;SDS011;10076;52.008;4.708;2023-02-08T11:45:49;10.45;;;6.50;;
19830;SDS011;10076;52.008;4.708;2023-02-08T11:50:56;9.95;;;6.18;;
19830;SDS011;10076;52.008;4.708;2023-02-08T11:53:26;7.82;;;5.50;;
19830;SDS011;10076;52.008;4.708;2023-02-08T11:56:05;11.25;;;6.43;;
19830;SDS011;10076;52.008;4.708;2023-02-08T11:58:39;13.30;;;6.72;;
19830;SDS011;10076;52.008;4.708;2023-02-08T12:01:14;12.27;;;6.70;;
19830;SDS011;10076;52.008;4.708;2023-02-08T12:03:44;9.35;;;6.10;;
19830;SDS011;10076;52.008;4.708;2023-02-08T12:11:46;8.57;;;5.35;;
19830;SDS011;10076;52.008;4.708;2023-02-08T12:16:50;12.20;;;6.82;;
19830;SDS011;10076;52.008;4.708;2023-02-08T12:19:24;11.55;;;7.25;;
19830;SDS011;10076;52.008;4.708;2023-02-08T12:24:43;9.98;;;6.35;;
19830;SDS011;10076;52.008;4.708;2023-02-08T12:27:24;12.57;;;7.38;;
19830;SDS011;10076;52.008;4.708;2023-02-08T12:38:56;8.50;;;6.25;;
19830;SDS011;10076;52.008;4.708;2023-02-08T12:50:24;10.40;;;6.43;;
19830;SDS011;10076;52.008;4.708;2023-02-08T12:52:57;9.13;;;6.05;;
19830;SDS011;10076;52.008;4.708;2023-02-08T12:55:30;9.23;;;5.95;;
19830;SDS011;10076;52.008;4.708;2023-02-08T12:58:33;8.43;;;6.13;;
19830;SDS011;10076;52.008;4.708;2023-02-08T13:00:59;9.65;;;6.20;;
19830;SDS011;10076;52.008;4.708;2023-02-08T13:03:34;13.27;;;6.45;;
19830;SDS011;10076;52.008;4.708;2023-02-08T13:06:11;12.05;;;6.43;;
19830;SDS011;10076;52.008;4.708;2023-02-08T13:08:47;9.48;;;6.22;;
19830;SDS011;10076;52.008;4.708;2023-02-08T13:14:38;9.10;;;5.97;;
19830;SDS011;10076;52.008;4.708;2023-02-08T13:17:27;9.55;;;6.30;;
19830;SDS011;10076;52.008;4.708;2023-02-08T13:20:01;10.20;;;6.45;;
19830;SDS011;10076;52.008;4.708;2023-02-08T13:22:29;8.93;;;6.53;;
19830;SDS011;10076;52.008;4.708;2023-02-08T13:24:58;10.07;;;6.93;;
19830;SDS011;10076;52.008;4.708;2023-02-08T13:27:26;10.75;;;6.45;;
19830;SDS011;10076;52.008;4.708;2023-02-08T13:29:51;9.98;;;6.18;;
19830;SDS011;10076;52.008;4.708;2023-02-08T13:32:19;10.15;;;6.53;;
19830;SDS011;10076;52.008;4.708;2023-02-08T13:37:31;10.05;;;6.38;;
19830;SDS011;10076;52.008;4.708;2023-02-08T13:42:36;10.65;;;6.45;;
19830;SDS011;10076;52.008;4.708;2023-02-08T13:45:03;9.98;;;7.25;;
19830;SDS011;10076;52.008;4.708;2023-02-08T13:48:05;10.10;;;6.40;;
19830;SDS011;10076;52.008;4.708;2023-02-08T13:52:59;8.20;;;5.97;;
19830;SDS011;10076;52.008;4.708;2023-02-08T13:58:02;10.68;;;6.70;;
19830;SDS011;10076;52.008;4.708;2023-02-08T14:03:21;10.68;;;6.45;;
19830;SDS011;10076;52.008;4.708;2023-02-08T14:08:57;8.27;;;6.18;;
19830;SDS011;10076;52.008;4.708;2023-02-08T14:14:21;8.23;;;5.70;;
19830;SDS011;10076;52.008;4.708;2023-02-08T14:19:28;10.80;;;6.25;;
19830;SDS011;10076;52.008;4.708;2023-02-08T14:24:33;10.52;;;6.65;;
19830;SDS011;10076;52.008;4.708;2023-02-08T14:27:10;11.15;;;6.78;;
19830;SDS011;10076;52.008;4.708;2023-02-08T14:29:53;8.88;;;5.50;;
19830;SDS011;10076;52.008;4.708;2023-02-08T14:32:32;9.52;;;5.50;;
19830;SDS011;10076;52.008;4.708;2023-02-08T14:35:02;9.10;;;5.78;;
19830;SDS011;10076;52.008;4.708;2023-02-08T14:37:32;14.43;;;6.68;;
19830;SDS011;10076;52.008;4.708;2023-02-08T14:43:41;12.00;;;7.07;;
19830;SDS011;10076;52.008;4.708;2023-02-08T14:49:10;8.18;;;6.28;;
19830;SDS011;10076;52.008;4.708;2023-02-08T14:51:39;10.90;;;6.25;;
19830;SDS011;10076;52.008;4.708;2023-02-08T14:54:16;7.65;;;5.85;;
19830;SDS011;10076;52.008;4.708;2023-02-08T14:56:55;9.40;;;6.20;;
19830;SDS011;10076;52.008;4.708;2023-02-08T14:59:26;8.38;;;6.50;;
19830;SDS011;10076;52.008;4.708;2023-02-08T15:01:55;8.35;;;6.07;;
19830;SDS011;10076;52.008;4.708;2023-02-08T15:04:23;10.93;;;6.70;;
19830;SDS011;10076;52.008;4.708;2023-02-08T15:09:46;9.48;;;6.72;;
19830;SDS011;10076;52.008;4.708;2023-02-08T15:15:30;10.30;;;6.40;;
19830;SDS011;10076;52.008;4.708;2023-02-08T15:18:01;8.35;;;5.65;;
19830;SDS011;10076;52.008;4.708;2023-02-08T15:20:29;11.50;;;6.50;;
19830;SDS011;10076;52.008;4.708;2023-02-08T15:22:58;9.00;;;6.38;;
19830;SDS011;10076;52.008;4.708;2023-02-08T15:25:29;8.85;;;5.78;;
19830;SDS011;10076;52.008;4.708;2023-02-08T15:27:57;11.27;;;6.53;;
19830;SDS011;10076;52.008;4.708;2023-02-08T15:32:51;9.60;;;5.47;;
19830;SDS011;10076;52.008;4.708;2023-02-08T15:35:17;9.40;;;5.50;;
19830;SDS011;10076;52.008;4.708;2023-02-08T15:37:48;10.55;;;5.68;;
19830;SDS011;10076;52.008;4.708;2023-02-08T15:40:24;8.98;;;5.90;;
19830;SDS011;10076;52.008;4.708;2023-02-08T15:42:54;8.52;;;4.97;;
19830;SDS011;10076;52.008;4.708;2023-02-08T15:45:27;8.70;;;5.47;;
19830;SDS011;10076;52.008;4.708;2023-02-08T15:47:56;8.75;;;5.13;;
19830;SDS011;10076;52.008;4.708;2023-02-08T15:50:22;10.23;;;5.30;;
19830;SDS011;10076;52.008;4.708;2023-02-08T15:55:33;7.78;;;5.57;;
19830;SDS011;10076;52.008;4.708;2023-02-08T16:00:29;7.88;;;4.90;;
19830;SDS011;10076;52.008;4.708;2023-02-08T16:02:57;8.85;;;5.82;;
19830;SDS011;10076;52.008;4.708;2023-02-08T16:05:27;11.32;;;5.80;;
19830;SDS011;10076;52.008;4.708;2023-02-08T16:07:54;8.87;;;5.37;;
19830;SDS011;10076;52.008;4.708;2023-02-08T16:13:06;9.17;;;5.30;;
19830;SDS011;10076;52.008;4.708;2023-02-08T16:15:44;10.63;;;5.80;;
19830;SDS011;10076;52.008;4.708;2023-02-08T16:21:17;9.17;;;4.57;;
19830;SDS011;10076;52.008;4.708;2023-02-08T16:23:53;10.07;;;5.13;;
19830;SDS011;10076;52.008;4.708;2023-02-08T16:26:24;10.40;;;5.73;;
19830;SDS011;10076;52.008;4.708;2023-02-08T16:28:52;9.47;;;6.20;;
19830;SDS011;10076;52.008;4.708;2023-02-08T16:31:22;17.37;;;9.77;;
19830;SDS011;10076;52.008;4.708;2023-02-08T16:34:06;13.60;;;9.17;;
19830;SDS011;10076;52.008;4.708;2023-02-08T16:36:39;14.50;;;8.33;;
19830;SDS011;10076;52.008;4.708;2023-02-08T16:42:06;19.30;;;13.30;;
19830;SDS011;10076;52.008;4.708;2023-02-08T16:45:02;17.53;;;11.43;;
19830;SDS011;10076;52.008;4.708;2023-02-08T16:50:02;16.67;;;8.97;;
19830;SDS011;10076;52.008;4.708;2023-02-08T16:52:28;26.17;;;17.47;;
19830;SDS011;10076;52.008;4.708;2023-02-08T16:54:53;38.93;;;25.37;;
19830;SDS011;10076;52.008;4.708;2023-02-08T16:57:19;36.50;;;23.13;;
19830;SDS011;10076;52.008;4.708;2023-02-08T16:59:44;34.63;;;25.80;;
19830;SDS011;10076;52.008;4.708;2023-02-08T17:02:10;26.07;;;16.43;;
19830;SDS011;10076;52.008;4.708;2023-02-08T17:04:36;19.27;;;10.47;;
19830;SDS011;10076;52.008;4.708;2023-02-08T17:07:01;14.40;;;9.10;;
19830;SDS011;10076;52.008;4.708;2023-02-08T17:09:27;13.17;;;7.50;;
19830;SDS011;10076;52.008;4.708;2023-02-08T17:11:52;14.40;;;6.37;;
19830;SDS011;10076;52.008;4.708;2023-02-08T17:14:17;13.27;;;6.27;;
19830;SDS011;10076;52.008;4.708;2023-02-08T17:16:43;11.87;;;7.80;;
19830;SDS011;10076;52.008;4.708;2023-02-08T17:19:15;16.93;;;9.33;;
19830;SDS011;10076;52.008;4.708;2023-02-08T17:21:41;13.47;;;7.50;;
19830;SDS011;10076;52.008;4.708;2023-02-08T17:24:07;16.10;;;8.50;;
19830;SDS011;10076;52.008;4.708;2023-02-08T17:26:39;14.77;;;7.13;;
19830;SDS011;10076;52.008;4.708;2023-02-08T17:29:06;12.20;;;5.97;;
19830;SDS011;10076;52.008;4.708;2023-02-08T17:31:32;11.00;;;6.17;;
19830;SDS011;10076;52.008;4.708;2023-02-08T17:33:58;14.03;;;7.70;;
19830;SDS011;10076;52.008;4.708;2023-02-08T17:36:28;12.93;;;6.83;;
19830;SDS011;10076;52.008;4.708;2023-02-08T17:38:59;11.77;;;7.13;;
19830;SDS011;10076;52.008;4.708;2023-02-08T17:41:25;9.80;;;5.63;;
19830;SDS011;10076;52.008;4.708;2023-02-08T17:43:51;16.07;;;7.70;;
19830;SDS011;10076;52.008;4.708;2023-02-08T17:46:19;23.30;;;14.00;;
19830;SDS011;10076;52.008;4.708;2023-02-08T17:48:46;26.27;;;15.63;;
19830;SDS011;10076;52.008;4.708;2023-02-08T17:51:13;15.53;;;10.57;;
19830;SDS011;10076;52.008;4.708;2023-02-08T17:53:40;13.00;;;7.27;;
19830;SDS011;10076;52.008;4.708;2023-02-08T17:56:20;11.03;;;5.30;;
19830;SDS011;10076;52.008;4.708;2023-02-08T17:58:47;10.03;;;5.60;;
19830;SDS011;10076;52.008;4.708;2023-02-08T18:01:18;7.63;;;4.83;;
19830;SDS011;10076;52.008;4.708;2023-02-08T18:03:49;10.77;;;6.23;;
19830;SDS011;10076;52.008;4.708;2023-02-08T18:06:16;11.57;;;5.83;;
19830;SDS011;10076;52.008;4.708;2023-02-08T18:08:41;9.40;;;5.27;;
19830;SDS011;10076;52.008;4.708;2023-02-08T18:11:08;11.50;;;5.60;;
19830;SDS011;10076;52.008;4.708;2023-02-08T18:13:41;10.60;;;4.90;;
19830;SDS011;10076;52.008;4.708;2023-02-08T18:16:08;10.47;;;5.60;;